Time;durP1;ratioP1;P1;durP2;ratioP2;P2;SDS_P1;SDS_P2;PMS_P1;PMS_P2;Temp;Humidity;BMP_temperature;BMP_pressure;BME280_temperature;BME280_humidity;BME280_pressure;Samples;Min_cycle;Max_cycle;Signal;HPM_P1;HPM_P2
2022/05/24 00:00:07;;;;;;;2.47;1.60;;;;;;;;;;5068248;28;20096;-53
2022/05/24 00:02:33;;;;;;;3.47;1.90;;;;;;;;;;5075840;28;20076;-52
2022/05/24 00:05:07;;;;;;;3.20;1.77;;;;;;;;;;5067253;28;20727;-46
2022/05/24 00:07:34;;;;;;;4.57;1.40;;;;;;;;;;5069843;28;20048;-48
2022/05/24 00:10:00;;;;;;;8.32;1.77;;;;;;;;;;5068579;28;20083;-50
2022/05/24 00:12:33;;;;;;;3.42;1.88;;;;;;;;;;5064184;28;20071;-51
2022/05/24 00:17:58;;;;;;;3.92;1.60;;;;;;;;;;5070596;28;20048;-46
2022/05/24 00:20:28;;;;;;;4.57;1.80;;;;;;;;;;5071401;28;20080;-51
2022/05/24 00:23:01;;;;;;;2.83;1.60;;;;;;;;;;5069883;28;20392;-51
2022/05/24 00:25:33;;;;;;;4.57;2.17;;;;;;;;;;5071975;28;20056;-46
2022/05/24 00:28:00;;;;;;;5.10;1.85;;;;;;;;;;5070483;28;20048;-51
2022/05/24 00:30:41;;;;;;;4.35;1.50;;;;;;;;;;5074687;28;20048;-57
2022/05/24 00:33:07;;;;;;;2.28;1.40;;;;;;;;;;5074452;28;20071;-56
2022/05/24 00:35:40;;;;;;;3.25;1.90;;;;;;;;;;5072001;28;20128;-55
2022/05/24 00:38:09;;;;;;;2.85;1.55;;;;;;;;;;5067526;28;20052;-56
2022/05/24 00:40:45;;;;;;;3.42;1.48;;;;;;;;;;5070902;28;20528;-56
2022/05/24 00:43:28;;;;;;;3.95;1.95;;;;;;;;;;5071629;28;20083;-56
2022/05/24 00:45:59;;;;;;;6.22;1.65;;;;;;;;;;5075563;28;20049;-52
2022/05/24 00:48:37;;;;;;;4.47;1.58;;;;;;;;;;5068884;28;20044;-52
2022/05/24 00:51:05;;;;;;;3.20;1.80;;;;;;;;;;5068126;28;20107;-50
2022/05/24 00:53:45;;;;;;;5.95;1.70;;;;;;;;;;5067068;28;20631;-52
2022/05/24 00:56:32;;;;;;;2.80;1.60;;;;;;;;;;5070998;28;20083;-46
2022/05/24 00:59:06;;;;;;;6.20;1.90;;;;;;;;;;5063048;28;20143;-52
2022/05/24 01:01:37;;;;;;;2.90;1.67;;;;;;;;;;5073144;28;20078;-47
2022/05/24 01:04:04;;;;;;;4.28;1.60;;;;;;;;;;5069305;28;20510;-55
2022/05/24 01:06:38;;;;;;;6.07;1.70;;;;;;;;;;5072491;28;20071;-57
2022/05/24 01:09:07;;;;;;;3.47;1.63;;;;;;;;;;5069063;28;20102;-49
2022/05/24 01:11:36;;;;;;;4.95;1.58;;;;;;;;;;5070992;28;20041;-51
2022/05/24 01:14:12;;;;;;;2.00;1.45;;;;;;;;;;5071147;28;20049;-52
2022/05/24 01:16:38;;;;;;;3.38;1.98;;;;;;;;;;5070879;28;20044;-52
2022/05/24 01:19:07;;;;;;;2.63;1.65;;;;;;;;;;5069262;28;20186;-51
2022/05/24 01:21:40;;;;;;;2.85;1.75;;;;;;;;;;5072174;28;20040;-50
2022/05/24 01:24:12;;;;;;;4.53;1.75;;;;;;;;;;5067828;28;20092;-49
2022/05/24 01:26:49;;;;;;;4.25;1.88;;;;;;;;;;5066725;28;20512;-52
2022/05/24 01:29:29;;;;;;;2.42;1.40;;;;;;;;;;5065959;28;20049;-56
2022/05/24 01:37:32;;;;;;;3.45;1.65;;;;;;;;;;5066242;28;20079;-52
2022/05/24 01:40:05;;;;;;;8.48;2.63;;;;;;;;;;5067775;28;20547;-54
2022/05/24 01:42:32;;;;;;;2.55;1.58;;;;;;;;;;5066490;28;20088;-56
2022/05/24 01:45:05;;;;;;;2.20;1.80;;;;;;;;;;5069991;28;20075;-52
2022/05/24 01:47:40;;;;;;;4.07;1.80;;;;;;;;;;5065289;28;20098;-56
2022/05/24 01:50:09;;;;;;;5.18;1.83;;;;;;;;;;5068491;28;20091;-58
2022/05/24 01:52:39;;;;;;;2.72;1.75;;;;;;;;;;5066333;28;20072;-58
2022/05/24 01:55:15;;;;;;;6.00;2.17;;;;;;;;;;5064738;28;20075;-58
2022/05/24 01:57:47;;;;;;;2.58;1.83;;;;;;;;;;5068293;28;20076;-55
2022/05/24 02:00:19;;;;;;;2.97;2.20;;;;;;;;;;5069523;28;20091;-58
2022/05/24 02:02:46;;;;;;;2.78;1.77;;;;;;;;;;5065415;28;20106;-57
2022/05/24 02:05:13;;;;;;;3.85;2.15;;;;;;;;;;5068435;28;20051;-46
2022/05/24 02:07:47;;;;;;;2.55;1.83;;;;;;;;;;5070360;28;20079;-51
2022/05/24 02:10:13;;;;;;;3.20;1.77;;;;;;;;;;5073388;28;20091;-50
2022/05/24 02:12:42;;;;;;;8.68;1.98;;;;;;;;;;5067530;28;20118;-52
2022/05/24 02:15:18;;;;;;;4.30;2.08;;;;;;;;;;5065901;28;20068;-48
2022/05/24 02:18:01;;;;;;;4.78;2.00;;;;;;;;;;5065165;28;20083;-47
2022/05/24 02:20:37;;;;;;;5.20;1.67;;;;;;;;;;5066247;28;20083;-58
2022/05/24 02:23:04;;;;;;;5.88;2.30;;;;;;;;;;5066665;28;20090;-50
2022/05/24 02:25:39;;;;;;;3.93;2.30;;;;;;;;;;5065180;28;20071;-51
2022/05/24 02:28:20;;;;;;;2.72;1.73;;;;;;;;;;5061815;27;20114;-51
2022/05/24 02:30:54;;;;;;;5.18;2.10;;;;;;;;;;5050783;28;20417;-53
2022/05/24 02:33:28;;;;;;;3.00;1.60;;;;;;;;;;5046245;28;20045;-49
2022/05/24 02:35:54;;;;;;;3.17;2.03;;;;;;;;;;5052190;28;20485;-47
2022/05/24 02:38:21;;;;;;;2.40;1.67;;;;;;;;;;5050652;28;20041;-48
2022/05/24 02:43:38;;;;;;;8.85;2.05;;;;;;;;;;5047242;28;20099;-51
2022/05/24 02:46:11;;;;;;;4.15;1.40;;;;;;;;;;5049141;28;20599;-50
2022/05/24 02:48:38;;;;;;;2.72;1.40;;;;;;;;;;5048301;28;20127;-55
2022/05/24 02:51:09;;;;;;;3.93;1.73;;;;;;;;;;5047476;28;20076;-54
2022/05/24 02:53:43;;;;;;;2.70;1.30;;;;;;;;;;5047162;28;20076;-51
2022/05/24 02:56:10;;;;;;;4.25;2.30;;;;;;;;;;5052072;28;20462;-51
2022/05/24 02:58:36;;;;;;;3.92;2.40;;;;;;;;;;5044801;28;20050;-50
2022/05/24 03:01:14;;;;;;;3.38;2.08;;;;;;;;;;5041258;28;20106;-47
2022/05/24 03:03:40;;;;;;;2.40;1.83;;;;;;;;;;5047670;28;20079;-47
2022/05/24 03:06:07;;;;;;;4.20;1.90;;;;;;;;;;5048761;28;20121;-49
2022/05/24 03:11:26;;;;;;;2.33;1.38;;;;;;;;;;5046891;28;20077;-48
2022/05/24 03:14:15;;;;;;;3.85;2.25;;;;;;;;;;5052175;28;20131;-46
2022/05/24 03:16:44;;;;;;;6.82;1.70;;;;;;;;;;5049296;28;20049;-49
2022/05/24 03:19:18;;;;;;;3.97;1.98;;;;;;;;;;5047541;28;20135;-52
2022/05/24 03:21:46;;;;;;;2.28;1.60;;;;;;;;;;5046506;28;20136;-54
2022/05/24 03:24:13;;;;;;;;;;;;;;;;;;5044675;28;20076;-50
2022/05/24 03:26:47;;;;;;;3.03;1.52;;;;;;;;;;5047350;28;19956;-52
2022/05/24 03:29:20;;;;;;;5.03;1.92;;;;;;;;;;5055887;28;20052;-51
2022/05/24 03:32:00;;;;;;;4.95;2.00;;;;;;;;;;5063825;28;20096;-51
2022/05/24 03:34:27;;;;;;;7.80;1.77;;;;;;;;;;5066971;28;20047;-51
2022/05/24 03:36:53;;;;;;;3.58;1.52;;;;;;;;;;5067051;28;20169;-56
2022/05/24 03:39:26;;;;;;;3.83;1.83;;;;;;;;;;5068320;28;20084;-51
2022/05/24 03:41:53;;;;;;;6.30;2.05;;;;;;;;;;5065013;28;20041;-58
2022/05/24 03:44:20;;;;;;;5.05;2.45;;;;;;;;;;5066926;28;20075;-58
2022/05/24 03:46:58;;;;;;;3.55;1.92;;;;;;;;;;5062480;28;20094;-57
2022/05/24 03:49:24;;;;;;;4.95;2.03;;;;;;;;;;5067227;28;20045;-56
2022/05/24 03:51:51;;;;;;;4.50;1.98;;;;;;;;;;5069305;28;20079;-58
2022/05/24 03:54:24;;;;;;;2.45;1.60;;;;;;;;;;5064877;28;20141;-58
2022/05/24 03:59:41;;;;;;;5.22;1.90;;;;;;;;;;5067164;28;20485;-52
2022/05/24 04:02:08;;;;;;;7.70;1.98;;;;;;;;;;5065634;28;20631;-53
2022/05/24 04:04:35;;;;;;;6.27;1.90;;;;;;;;;;5065912;28;20382;-52
2022/05/24 04:07:08;;;;;;;3.28;1.45;;;;;;;;;;5068210;28;20079;-51
2022/05/24 04:09:35;;;;;;;5.72;1.92;;;;;;;;;;5067083;28;20084;-51
2022/05/24 04:12:01;;;;;;;2.42;2.10;;;;;;;;;;5068150;28;20080;-52
2022/05/24 04:14:35;;;;;;;4.30;1.75;;;;;;;;;;5062705;28;20477;-54
2022/05/24 04:17:01;;;;;;;1.77;1.48;;;;;;;;;;5073562;28;21095;-56
2022/05/24 04:19:28;;;;;;;3.00;2.10;;;;;;;;;;5070428;28;20514;-57
2022/05/24 04:22:01;;;;;;;3.63;2.47;;;;;;;;;;5071306;28;20094;-58
2022/05/24 04:24:28;;;;;;;5.78;2.53;;;;;;;;;;5069587;28;20072;-58
2022/05/24 04:26:54;;;;;;;7.53;2.25;;;;;;;;;;5071087;28;20083;-58
2022/05/24 04:29:34;;;;;;;3.80;2.42;;;;;;;;;;5063323;28;20144;-57
2022/05/24 04:32:08;;;;;;;3.35;2.03;;;;;;;;;;5046924;28;20048;-59
2022/05/24 04:34:41;;;;;;;5.35;2.15;;;;;;;;;;5051437;28;20044;-58
2022/05/24 04:37:10;;;;;;;6.53;2.28;;;;;;;;;;5051745;28;20060;-55
2022/05/24 04:39:36;;;;;;;3.88;2.03;;;;;;;;;;5052908;28;20500;-54
2022/05/24 04:42:18;;;;;;;4.80;2.20;;;;;;;;;;5055465;28;20457;-54
2022/05/24 04:44:49;;;;;;;4.75;2.20;;;;;;;;;;5056860;28;20048;-57
2022/05/24 04:47:25;;;;;;;4.13;2.10;;;;;;;;;;5048555;28;20222;-51
2022/05/24 04:49:56;;;;;;;8.60;2.17;;;;;;;;;;5050054;28;20485;-56
2022/05/24 04:52:25;;;;;;;5.50;2.78;;;;;;;;;;5052087;28;20079;-54
2022/05/24 04:54:59;;;;;;;4.60;2.65;;;;;;;;;;5051430;28;20115;-57
2022/05/24 04:57:25;;;;;;;3.42;2.05;;;;;;;;;;5051670;28;20065;-52
2022/05/24 04:59:52;;;;;;;7.28;2.78;;;;;;;;;;5046752;28;20139;-51
2022/05/24 05:02:25;;;;;;;4.18;2.20;;;;;;;;;;5054254;28;20084;-53
2022/05/24 05:04:52;;;;;;;4.50;2.20;;;;;;;;;;5054661;28;20113;-55
2022/05/24 05:07:21;;;;;;;2.65;2.10;;;;;;;;;;5049568;28;20738;-53
2022/05/24 05:09:54;;;;;;;4.25;2.17;;;;;;;;;;5049713;28;20563;-53
2022/05/24 05:12:21;;;;;;;4.88;2.45;;;;;;;;;;5052222;28;20080;-44
2022/05/24 05:14:48;;;;;;;4.28;2.28;;;;;;;;;;5048944;28;20052;-51
2022/05/24 05:17:21;;;;;;;4.05;2.40;;;;;;;;;;5050910;28;20049;-52
2022/05/24 05:19:47;;;;;;;4.05;2.63;;;;;;;;;;5048296;28;20589;-56
2022/05/24 05:22:19;;;;;;;3.35;2.30;;;;;;;;;;5055603;28;20168;-53
2022/05/24 05:24:53;;;;;;;4.15;2.40;;;;;;;;;;5053454;28;20084;-56
2022/05/24 05:27:19;;;;;;;6.70;2.47;;;;;;;;;;5053199;28;20085;-56
2022/05/24 05:32:50;;;;;;;7.65;2.28;;;;;;;;;;5077017;28;20338;-48
2022/05/24 05:35:17;;;;;;;9.35;2.70;;;;;;;;;;5065932;28;20521;-57
2022/05/24 05:37:51;;;;;;;4.40;2.53;;;;;;;;;;5070523;28;20087;-57
2022/05/24 05:40:17;;;;;;;5.63;2.22;;;;;;;;;;5068812;28;20048;-56
2022/05/24 05:42:43;;;;;;;4.47;2.60;;;;;;;;;;5069851;28;20091;-58
2022/05/24 05:45:17;;;;;;;5.18;2.80;;;;;;;;;;5071005;28;20040;-57
2022/05/24 05:47:44;;;;;;;7.27;2.40;;;;;;;;;;5071627;28;20501;-56
2022/05/24 05:50:10;;;;;;;5.32;2.92;;;;;;;;;;5070814;28;20286;-54
2022/05/24 05:52:44;;;;;;;4.60;2.45;;;;;;;;;;5066002;28;20084;-57
2022/05/24 05:55:10;;;;;;;5.18;2.92;;;;;;;;;;5070666;28;20076;-56
2022/05/24 05:57:39;;;;;;;9.38;2.47;;;;;;;;;;5070739;28;20054;-53
2022/05/24 06:00:13;;;;;;;3.65;2.60;;;;;;;;;;5069316;28;20106;-49
2022/05/24 06:02:41;;;;;;;10.80;2.88;;;;;;;;;;5072347;28;20452;-54
2022/05/24 06:05:08;;;;;;;5.93;2.58;;;;;;;;;;5068729;28;20548;-56
2022/05/24 06:07:40;;;;;;;7.07;2.63;;;;;;;;;;5070572;28;20632;-54
2022/05/24 06:10:07;;;;;;;4.53;2.70;;;;;;;;;;5071181;28;20260;-54
2022/05/24 06:12:34;;;;;;;9.57;3.07;;;;;;;;;;5069419;28;20083;-59
2022/05/24 06:15:07;;;;;;;6.60;2.42;;;;;;;;;;5070632;28;20611;-52
2022/05/24 06:17:45;;;;;;;8.43;3.00;;;;;;;;;;5069743;28;20568;-50
2022/05/24 06:20:19;;;;;;;4.28;2.78;;;;;;;;;;5062416;28;20110;-50
2022/05/24 06:22:46;;;;;;;6.57;2.72;;;;;;;;;;5073834;28;20464;-49
2022/05/24 06:25:13;;;;;;;;;;;;;;;;;;5070865;28;20087;-50
2022/05/24 06:27:45;;;;;;;5.68;2.90;;;;;;;;;;5071400;28;19966;-52
2022/05/24 06:30:20;;;;;;;7.47;3.22;;;;;;;;;;5070896;28;20092;-55
2022/05/24 06:32:52;;;;;;;7.20;3.20;;;;;;;;;;5070895;28;20076;-50
2022/05/24 06:35:19;;;;;;;5.85;2.60;;;;;;;;;;5068493;28;20047;-51
2022/05/24 06:37:48;;;;;;;6.50;2.60;;;;;;;;;;5074612;28;20132;-51
2022/05/24 06:40:22;;;;;;;7.03;2.95;;;;;;;;;;5070115;28;20103;-48
2022/05/24 06:42:48;;;;;;;12.52;3.30;;;;;;;;;;5070593;28;20412;-50
2022/05/24 06:45:15;;;;;;;9.07;3.23;;;;;;;;;;5071099;28;20098;-50
2022/05/24 06:47:49;;;;;;;6.47;2.90;;;;;;;;;;5066767;28;20068;-55
2022/05/24 06:50:16;;;;;;;6.57;2.80;;;;;;;;;;5074235;28;20082;-60
2022/05/24 06:52:43;;;;;;;7.60;3.20;;;;;;;;;;5074433;28;20109;-56
2022/05/24 06:55:17;;;;;;;5.05;2.60;;;;;;;;;;5077470;28;20105;-58
2022/05/24 06:57:43;;;;;;;6.60;3.40;;;;;;;;;;5070674;28;20090;-56
2022/05/24 07:03:04;;;;;;;4.00;2.65;;;;;;;;;;5090368;28;20127;-55
2022/05/24 07:05:31;;;;;;;8.15;2.55;;;;;;;;;;5089958;28;20055;-56
2022/05/24 07:08:00;;;;;;;7.67;2.70;;;;;;;;;;5093346;28;20079;-50
2022/05/24 07:10:34;;;;;;;12.30;3.13;;;;;;;;;;5092233;28;20048;-54
2022/05/24 07:13:02;;;;;;;7.55;2.92;;;;;;;;;;5087580;28;20481;-54
2022/05/24 07:15:29;;;;;;;6.28;2.80;;;;;;;;;;5092222;28;20083;-54
2022/05/24 07:18:03;;;;;;;6.85;2.45;;;;;;;;;;5086580;28;20075;-54
2022/05/24 07:20:30;;;;;;;10.18;2.42;;;;;;;;;;5089218;28;20056;-53
2022/05/24 07:23:05;;;;;;;9.03;2.63;;;;;;;;;;5087261;28;20044;-55
2022/05/24 07:25:40;;;;;;;5.30;2.58;;;;;;;;;;5088862;28;20079;-59
2022/05/24 07:28:07;;;;;;;6.68;3.08;;;;;;;;;;5091641;28;20681;-54
2022/05/24 07:30:33;;;;;;;4.50;2.13;;;;;;;;;;5075130;28;20068;-59
2022/05/24 07:33:20;;;;;;;8.15;2.10;;;;;;;;;;5072324;28;20056;-58
2022/05/24 07:35:47;;;;;;;12.80;2.15;;;;;;;;;;5067965;28;20567;-58
2022/05/24 07:38:20;;;;;;;7.50;2.15;;;;;;;;;;5070415;28;20138;-56
2022/05/24 07:46:31;;;;;;;5.25;2.38;;;;;;;;;;5069887;28;20045;-51
2022/05/24 07:49:05;;;;;;;5.80;2.22;;;;;;;;;;5069396;28;20078;-54
2022/05/24 07:51:32;;;;;;;6.07;1.95;;;;;;;;;;5072915;28;20049;-51
2022/05/24 07:53:58;;;;;;;7.55;2.17;;;;;;;;;;5068845;28;20087;-51
2022/05/24 07:56:31;;;;;;;6.00;2.30;;;;;;;;;;5065698;28;20488;-54
2022/05/24 07:58:58;;;;;;;5.10;2.15;;;;;;;;;;5071593;28;20096;-50
2022/05/24 08:01:24;;;;;;;6.68;2.10;;;;;;;;;;5073366;28;20084;-52
2022/05/24 08:03:58;;;;;;;2.47;1.77;;;;;;;;;;5059514;28;20435;-50
2022/05/24 08:06:24;;;;;;;3.87;2.20;;;;;;;;;;5078644;28;20082;-57
2022/05/24 08:08:51;;;;;;;5.55;2.15;;;;;;;;;;5075858;28;20041;-53
2022/05/24 08:11:24;;;;;;;4.47;1.90;;;;;;;;;;5075993;28;20044;-52
2022/05/24 08:13:50;;;;;;;6.30;2.67;;;;;;;;;;5074536;28;20504;-55
2022/05/24 08:16:16;;;;;;;8.93;2.03;;;;;;;;;;5076141;28;20090;-54
2022/05/24 08:18:50;;;;;;;11.82;2.40;;;;;;;;;;5076958;28;20052;-56
2022/05/24 08:21:16;;;;;;;3.17;2.38;;;;;;;;;;5079974;28;20526;-53
2022/05/24 08:23:43;;;;;;;3.95;2.22;;;;;;;;;;5072537;28;20080;-50
2022/05/24 08:26:16;;;;;;;8.50;2.50;;;;;;;;;;5072700;28;20501;-52
2022/05/24 08:28:43;;;;;;;3.80;2.05;;;;;;;;;;5074245;28;20138;-51
2022/05/24 08:31:10;;;;;;;9.13;2.50;;;;;;;;;;5076475;28;21009;-54
2022/05/24 08:33:44;;;;;;;4.53;2.28;;;;;;;;;;5072237;28;20064;-53
2022/05/24 08:36:10;;;;;;;6.32;2.22;;;;;;;;;;5072835;28;20603;-52
2022/05/24 08:38:37;;;;;;;12.30;2.40;;;;;;;;;;5076693;28;20048;-54
2022/05/24 08:41:14;;;;;;;6.63;2.75;;;;;;;;;;5070067;28;20048;-53
2022/05/24 08:43:43;;;;;;;8.18;2.28;;;;;;;;;;5074438;28;20397;-47
2022/05/24 08:49:13;;;;;;;4.97;2.40;;;;;;;;;;5076365;28;20049;-49
2022/05/24 08:51:42;;;;;;;9.60;2.28;;;;;;;;;;5072353;28;20144;-53
2022/05/24 08:54:19;;;;;;;3.30;2.10;;;;;;;;;;5074151;28;20188;-55
2022/05/24 08:56:54;;;;;;;4.32;2.63;;;;;;;;;;5076084;28;20098;-53
2022/05/24 08:59:29;;;;;;;3.95;2.50;;;;;;;;;;5072806;28;20160;-52
2022/05/24 09:01:56;;;;;;;5.70;2.20;;;;;;;;;;5076782;28;20087;-56
2022/05/24 09:04:23;;;;;;;4.57;2.60;;;;;;;;;;5073863;28;20083;-53
2022/05/24 09:07:02;;;;;;;5.72;2.50;;;;;;;;;;5070436;28;20103;-55
2022/05/24 09:09:39;;;;;;;6.72;2.10;;;;;;;;;;5071297;28;20170;-55
2022/05/24 09:12:31;;;;;;;12.40;2.88;;;;;;;;;;5078637;28;20619;-56
2022/05/24 09:15:16;;;;;;;5.10;2.60;;;;;;;;;;5090114;28;20044;-57
2022/05/24 09:17:53;;;;;;;3.25;2.22;;;;;;;;;;5084600;28;20124;-50
2022/05/24 09:20:25;;;;;;;8.65;2.50;;;;;;;;;;5086736;28;20154;-60
2022/05/24 09:23:21;;;;;;;4.85;2.30;;;;;;;;;;5091656;28;20039;-55
2022/05/24 09:25:56;;;;;;;5.88;2.35;;;;;;;;;;5079826;28;20048;-53
2022/05/24 09:28:42;;;;;;;6.68;2.65;;;;;;;;;;5091216;28;20087;-50
2022/05/24 09:31:32;;;;;;;6.20;2.58;;;;;;;;;;5073102;28;20056;-50
2022/05/24 09:34:26;;;;;;;3.60;2.50;;;;;;;;;;5084935;28;20051;-51
2022/05/24 09:36:54;;;;;;;9.27;2.97;;;;;;;;;;5077325;28;20072;-53
2022/05/24 09:39:36;;;;;;;6.80;2.28;;;;;;;;;;5069961;28;20106;-57
2022/05/24 09:42:11;;;;;;;5.03;2.90;;;;;;;;;;5073671;28;20084;-53
2022/05/24 09:45:10;;;;;;;6.60;2.67;;;;;;;;;;5074802;28;20044;-53
2022/05/24 09:47:49;;;;;;;5.05;2.67;;;;;;;;;;5072073;28;20120;-48
2022/05/24 09:50:30;;;;;;;12.82;3.22;;;;;;;;;;5068257;28;20060;-52
2022/05/24 09:53:02;;;;;;;6.25;2.85;;;;;;;;;;5070137;28;20501;-52
2022/05/24 09:55:38;;;;;;;7.13;3.20;;;;;;;;;;5071809;28;20079;-53
2022/05/24 09:58:17;;;;;;;4.22;3.03;;;;;;;;;;5071299;28;20079;-51
2022/05/24 10:00:54;;;;;;;5.55;3.45;;;;;;;;;;5067695;28;20087;-49
2022/05/24 10:03:21;;;;;;;6.00;3.60;;;;;;;;;;5067624;28;20920;-58
2022/05/24 10:06:02;;;;;;;7.88;3.75;;;;;;;;;;5070230;28;20070;-57
2022/05/24 10:08:37;;;;;;;9.68;3.30;;;;;;;;;;5068591;28;20493;-58
2022/05/24 10:11:05;;;;;;;8.40;4.00;;;;;;;;;;5066656;28;20076;-59
2022/05/24 10:13:37;;;;;;;6.38;3.40;;;;;;;;;;5067203;28;20084;-58
2022/05/24 10:16:21;;;;;;;6.40;4.05;;;;;;;;;;5070379;28;20484;-58
2022/05/24 10:18:54;;;;;;;7.57;4.03;;;;;;;;;;5070573;28;20440;-61
2022/05/24 10:21:33;;;;;;;7.07;3.95;;;;;;;;;;5069351;28;20104;-48
2022/05/24 10:24:08;;;;;;;7.80;3.80;;;;;;;;;;5071143;28;20532;-48
2022/05/24 10:26:47;;;;;;;9.88;3.83;;;;;;;;;;5064444;28;20094;-46
2022/05/24 10:29:14;;;;;;;9.82;4.10;;;;;;;;;;5071051;28;20505;-50
2022/05/24 10:38:17;;;;;;;6.90;4.20;;;;;;;;;;5072188;28;20106;-48
2022/05/24 10:38:29;;;;;;;12.30;4.22;;;;;;;;;;5070378;28;20040;-64
2022/05/24 10:41:23;;;;;;;9.05;4.28;;;;;;;;;;5071750;28;20075;-64
2022/05/24 10:44:11;;;;;;;7.88;4.00;;;;;;;;;;5059894;28;20095;-64
2022/05/24 10:47:02;;;;;;;6.13;4.07;;;;;;;;;;5066891;28;20556;-64
2022/05/24 10:49:47;;;;;;;9.63;4.72;;;;;;;;;;5068354;28;20489;-63
2022/05/24 10:52:21;;;;;;;13.00;4.80;;;;;;;;;;5071962;28;20123;-64
2022/05/24 10:54:55;;;;;;;7.10;4.88;;;;;;;;;;5070342;28;20057;-54
2022/05/24 10:57:30;;;;;;;7.88;4.30;;;;;;;;;;5072297;28;20048;-55
2022/05/24 10:59:56;;;;;;;;;;;;;;;;;;5072416;28;20487;-54
2022/05/24 11:02:22;;;;;;;5.20;3.92;;;;;;;;;;5072666;28;19928;-52
2022/05/24 11:05:03;;;;;;;11.68;4.05;;;;;;;;;;5069148;28;20056;-49
2022/05/24 11:07:32;;;;;;;7.40;3.95;;;;;;;;;;5070874;28;20060;-49
2022/05/24 11:10:20;;;;;;;6.43;4.10;;;;;;;;;;5071251;28;20068;-50
2022/05/24 11:12:48;;;;;;;10.15;4.40;;;;;;;;;;5072057;28;20044;-51
2022/05/24 11:15:32;;;;;;;9.48;4.20;;;;;;;;;;5070541;28;20040;-51
2022/05/24 11:18:14;;;;;;;7.60;4.53;;;;;;;;;;5067205;28;20559;-54
2022/05/24 11:21:03;;;;;;;8.00;3.50;;;;;;;;;;5072984;28;20493;-55
2022/05/24 11:23:38;;;;;;;7.68;3.97;;;;;;;;;;5076010;28;20134;-57
2022/05/24 11:26:11;;;;;;;11.52;3.95;;;;;;;;;;5072411;28;20048;-52
2022/05/24 11:28:42;;;;;;;10.88;4.53;;;;;;;;;;5070248;28;20040;-55
2022/05/24 11:31:21;;;;;;;7.00;3.83;;;;;;;;;;5065369;28;20136;-55
2022/05/24 11:34:09;;;;;;;7.80;4.18;;;;;;;;;;5050776;28;20913;-48
2022/05/24 11:36:40;;;;;;;8.15;3.95;;;;;;;;;;5052886;28;20057;-51
2022/05/24 11:39:14;;;;;;;7.93;4.70;;;;;;;;;;5053231;28;20045;-52
2022/05/24 11:41:41;;;;;;;11.63;4.93;;;;;;;;;;5055999;28;20115;-55
2022/05/24 11:44:27;;;;;;;10.75;4.88;;;;;;;;;;5051277;28;20092;-51
2022/05/24 11:47:02;;;;;;;10.90;4.72;;;;;;;;;;5052054;28;20045;-53
2022/05/24 11:49:28;;;;;;;9.97;4.57;;;;;;;;;;5037664;28;20136;-52
2022/05/24 11:51:56;;;;;;;8.00;4.97;;;;;;;;;;5051986;28;20338;-58
2022/05/24 11:54:29;;;;;;;7.18;4.68;;;;;;;;;;5055851;28;20098;-56
2022/05/24 11:56:55;;;;;;;9.50;4.60;;;;;;;;;;5055605;28;20088;-52
2022/05/24 11:59:40;;;;;;;8.60;4.82;;;;;;;;;;5056114;28;20041;-55
2022/05/24 12:02:19;;;;;;;10.82;4.97;;;;;;;;;;5053065;28;20103;-54
2022/05/24 12:08:00;;;;;;;7.85;4.53;;;;;;;;;;5053803;28;20076;-55
2022/05/24 12:10:41;;;;;;;10.82;4.65;;;;;;;;;;5050828;28;20080;-55
2022/05/24 12:13:35;;;;;;;6.63;4.20;;;;;;;;;;5052656;28;20124;-54
2022/05/24 12:16:03;;;;;;;9.35;4.43;;;;;;;;;;5046842;28;20053;-48
2022/05/24 12:18:39;;;;;;;8.65;4.65;;;;;;;;;;5058718;28;20045;-53
2022/05/24 12:21:05;;;;;;;9.30;4.47;;;;;;;;;;5052290;28;20088;-53
2022/05/24 12:23:34;;;;;;;8.98;4.30;;;;;;;;;;5051319;28;20537;-55
2022/05/24 12:26:12;;;;;;;8.63;4.45;;;;;;;;;;5052630;28;20103;-52
2022/05/24 12:28:38;;;;;;;9.05;4.55;;;;;;;;;;5054539;28;20053;-56
2022/05/24 12:31:07;;;;;;;6.28;4.65;;;;;;;;;;5058180;28;20048;-53
2022/05/24 12:33:49;;;;;;;8.70;4.65;;;;;;;;;;5077437;28;20052;-60
2022/05/24 12:36:18;;;;;;;10.48;4.47;;;;;;;;;;5069728;28;20044;-55
2022/05/24 12:39:13;;;;;;;7.20;4.60;;;;;;;;;;5076208;28;20497;-51
2022/05/24 12:41:40;;;;;;;9.23;4.90;;;;;;;;;;5072354;28;20045;-52
2022/05/24 12:44:23;;;;;;;8.88;4.47;;;;;;;;;;5074686;28;20134;-51
2022/05/24 12:47:11;;;;;;;11.18;5.00;;;;;;;;;;5072096;28;20098;-55
2022/05/24 12:49:48;;;;;;;7.43;4.60;;;;;;;;;;5074061;28;20536;-54
2022/05/24 12:52:25;;;;;;;6.15;4.15;;;;;;;;;;5076152;28;20044;-52
2022/05/24 12:55:00;;;;;;;7.32;5.07;;;;;;;;;;5067692;28;20044;-63
2022/05/24 12:57:26;;;;;;;;;;;;;;;;;;5072068;28;20048;-63
2022/05/24 12:59:55;;;;;;;6.40;4.40;;;;;;;;;;5075449;28;19966;-63
2022/05/24 13:02:39;;;;;;;7.78;4.70;;;;;;;;;;5072740;28;20525;-62
2022/05/24 13:05:10;;;;;;;6.30;4.57;;;;;;;;;;5073401;28;20048;-63
2022/05/24 13:07:45;;;;;;;7.50;4.22;;;;;;;;;;5075069;28;20044;-63
2022/05/24 13:10:11;;;;;;;10.18;4.68;;;;;;;;;;5075739;28;20076;-50
2022/05/24 13:12:38;;;;;;;5.60;4.47;;;;;;;;;;5059729;28;20072;-49
2022/05/24 13:15:15;;;;;;;5.57;4.32;;;;;;;;;;5073408;28;20389;-51
2022/05/24 13:17:43;;;;;;;5.03;4.15;;;;;;;;;;5076236;28;20048;-47
2022/05/24 13:20:11;;;;;;;6.13;3.88;;;;;;;;;;5069166;28;20048;-49
2022/05/24 13:22:46;;;;;;;7.72;3.92;;;;;;;;;;5072085;28;20080;-49
2022/05/24 13:25:17;;;;;;;4.50;3.80;;;;;;;;;;5072851;28;20106;-48
2022/05/24 13:27:56;;;;;;;6.05;3.92;;;;;;;;;;5071654;28;20058;-59
2022/05/24 13:33:53;;;;;;;5.60;3.50;;;;;;;;;;5072849;28;20395;-61
2022/05/24 13:36:21;;;;;;;5.95;3.30;;;;;;;;;;5071794;28;20102;-61
2022/05/24 13:39:04;;;;;;;3.80;3.20;;;;;;;;;;5069521;28;20171;-61
2022/05/24 13:41:35;;;;;;;4.53;3.10;;;;;;;;;;5074282;28;20827;-62
2022/05/24 13:44:32;;;;;;;4.10;3.22;;;;;;;;;;5070773;28;20057;-61
2022/05/24 13:47:04;;;;;;;5.57;3.20;;;;;;;;;;5073026;28;20079;-62
2022/05/24 13:49:38;;;;;;;3.58;3.10;;;;;;;;;;5072620;28;20497;-58
2022/05/24 13:52:21;;;;;;;5.22;3.40;;;;;;;;;;5074807;28;20086;-63
2022/05/24 13:55:10;;;;;;;3.42;3.10;;;;;;;;;;5075703;28;20048;-63
2022/05/24 13:57:56;;;;;;;5.30;3.35;;;;;;;;;;5071424;28;20099;-62
2022/05/24 14:00:33;;;;;;;3.58;3.13;;;;;;;;;;5070799;28;20049;-63
2022/05/24 14:03:09;;;;;;;3.55;2.80;;;;;;;;;;5074242;28;20079;-63
2022/05/24 14:05:42;;;;;;;4.30;2.70;;;;;;;;;;5074515;28;20079;-58
2022/05/24 14:08:09;;;;;;;3.28;2.80;;;;;;;;;;5074708;28;20107;-55
2022/05/24 14:10:37;;;;;;;4.50;3.03;;;;;;;;;;5074248;28;20044;-57
2022/05/24 14:13:10;;;;;;;7.05;2.85;;;;;;;;;;5069902;28;20490;-56
2022/05/24 14:15:38;;;;;;;6.40;3.20;;;;;;;;;;5070277;28;20080;-53
2022/05/24 14:18:05;;;;;;;4.47;3.22;;;;;;;;;;5068623;28;20076;-55
2022/05/24 14:20:38;;;;;;;5.00;3.13;;;;;;;;;;5072027;28;20052;-54
2022/05/24 14:23:05;;;;;;;4.28;3.00;;;;;;;;;;5078305;28;20571;-54
2022/05/24 14:25:31;;;;;;;4.18;3.40;;;;;;;;;;5073613;28;20084;-49
2022/05/24 14:28:05;;;;;;;3.45;2.90;;;;;;;;;;5070398;28;20110;-48
2022/05/24 14:30:34;;;;;;;3.78;2.70;;;;;;;;;;5073412;28;20045;-52
2022/05/24 14:33:07;;;;;;;4.38;2.83;;;;;;;;;;5070910;28;20083;-49
2022/05/24 14:35:41;;;;;;;5.28;3.30;;;;;;;;;;5071403;28;20103;-53
2022/05/24 14:38:07;;;;;;;3.33;2.20;;;;;;;;;;5068710;28;20102;-55
2022/05/24 14:40:38;;;;;;;4.30;2.67;;;;;;;;;;5065260;28;20071;-50
2022/05/24 14:43:23;;;;;;;6.10;2.85;;;;;;;;;;5066498;28;20420;-60
2022/05/24 14:45:52;;;;;;;3.13;2.65;;;;;;;;;;5070558;28;20060;-60
2022/05/24 14:48:26;;;;;;;3.60;2.42;;;;;;;;;;5071076;28;20501;-60
2022/05/24 14:50:52;;;;;;;7.18;2.70;;;;;;;;;;5072454;28;20048;-60
2022/05/24 14:53:19;;;;;;;3.30;2.70;;;;;;;;;;5070384;28;20095;-59
2022/05/24 14:56:08;;;;;;;3.70;2.53;;;;;;;;;;5069044;28;20052;-61
2022/05/24 14:58:34;;;;;;;3.55;2.60;;;;;;;;;;5070113;28;20072;-60
2022/05/24 15:01:08;;;;;;;2.80;2.30;;;;;;;;;;5072654;28;20080;-59
2022/05/24 15:03:34;;;;;;;6.30;2.35;;;;;;;;;;5070176;28;20047;-51
2022/05/24 15:06:01;;;;;;;10.00;3.53;;;;;;;;;;5070214;28;20063;-51
2022/05/24 15:16:57;;;;;;;1.83;1.73;;;;;;;;;;5064058;28;20041;-54
2022/05/24 15:19:31;;;;;;;3.95;1.98;;;;;;;;;;5069734;28;20082;-52
2022/05/24 15:21:58;;;;;;;2.53;1.80;;;;;;;;;;5073376;28;20052;-63
2022/05/24 15:24:26;;;;;;;2.00;1.65;;;;;;;;;;5075066;28;20150;-51
2022/05/24 16:10:20;;;;;;;4.47;2.50;;;;;;;;;;5058379;28;20091;-49
2022/05/24 16:12:54;;;;;;;3.25;2.95;;;;;;;;;;5054793;28;20134;-48
2022/05/24 16:15:22;;;;;;;14.35;2.63;;;;;;;;;;5056746;28;20133;-49
2022/05/24 16:17:49;;;;;;;3.13;2.88;;;;;;;;;;5054376;28;20106;-52
2022/05/24 16:20:23;;;;;;;5.68;3.70;;;;;;;;;;5059757;28;20147;-61
2022/05/24 16:22:49;;;;;;;6.65;4.55;;;;;;;;;;5060177;28;20669;-50
2022/05/24 16:25:16;;;;;;;8.80;5.20;;;;;;;;;;5055335;28;20122;-51
2022/05/24 16:27:51;;;;;;;9.23;6.32;;;;;;;;;;5057769;28;20087;-54
2022/05/24 16:30:34;;;;;;;8.05;6.32;;;;;;;;;;5055047;28;20770;-50
2022/05/24 16:33:12;;;;;;;12.65;6.85;;;;;;;;;;5059742;28;20065;-55
2022/05/24 16:35:58;;;;;;;10.18;6.78;;;;;;;;;;5056894;28;20079;-52
2022/05/24 16:38:32;;;;;;;11.10;6.93;;;;;;;;;;5059530;28;20126;-52
2022/05/24 16:40:58;;;;;;;16.70;7.85;;;;;;;;;;5058287;28;20096;-50
2022/05/24 16:43:25;;;;;;;16.63;8.05;;;;;;;;;;5056442;28;20177;-57
2022/05/24 16:45:59;;;;;;;17.88;8.15;;;;;;;;;;5059331;28;20127;-56
2022/05/24 16:48:25;;;;;;;17.25;7.82;;;;;;;;;;5058588;28;20092;-55